createdAt,value
2023-03-25T00:01:16.599Z,99632.94
2023-03-25T00:03:46.767Z,99651.00
2023-03-25T00:06:14.314Z,99643.25
2023-03-25T00:08:41.723Z,99642.37
2023-03-25T00:11:09.003Z,99647.72
2023-03-25T00:13:36.595Z,99663.09
2023-03-25T00:16:04.793Z,99664.91
2023-03-25T00:18:35.641Z,99657.00
2023-03-25T00:21:04.494Z,99663.81
2023-03-25T00:23:32.408Z,99664.25
2023-03-25T00:26:03.394Z,99657.19
2023-03-25T00:28:32.789Z,99651.41
2023-03-25T00:31:02.152Z,99645.50
2023-03-25T00:33:29.517Z,99645.41
2023-03-25T00:35:59.620Z,99647.97
2023-03-25T00:38:34.455Z,99654.12
2023-03-25T00:41:26.126Z,99658.09
2023-03-25T00:43:55.815Z,99661.09
2023-03-25T00:46:28.018Z,99662.34
2023-03-25T00:48:55.481Z,99674.31
2023-03-25T00:51:23.589Z,99679.41
2023-03-25T00:54:01.520Z,99678.16
2023-03-25T00:56:29.717Z,99688.50
2023-03-25T00:58:57.543Z,99690.78
2023-03-25T01:01:29.824Z,99713.25
2023-03-25T01:03:58.628Z,99728.25
2023-03-25T01:06:29.627Z,99734.50
2023-03-25T01:08:58.007Z,99742.66
2023-03-25T01:11:31.348Z,99747.78
2023-03-25T01:14:00.045Z,99733.47
2023-03-25T01:16:28.280Z,99748.28
2023-03-25T01:18:56.289Z,99741.53
2023-03-25T01:21:23.986Z,99736.00
2023-03-25T01:23:50.985Z,99744.56
2023-03-25T01:26:18.058Z,99745.31
2023-03-25T01:28:45.900Z,99754.00
2023-03-25T01:31:15.238Z,99747.88
2023-03-25T01:33:42.609Z,99757.25
2023-03-25T01:36:13.176Z,99757.34
2023-03-25T01:38:41.904Z,99746.44
2023-03-25T01:41:10.296Z,99736.88
2023-03-25T01:43:37.491Z,99739.41
2023-03-25T01:46:04.690Z,99739.03
2023-03-25T01:48:40.790Z,99736.47
2023-03-25T01:51:11.656Z,99733.75
2023-03-25T01:53:40.588Z,99734.47
2023-03-25T01:56:10.688Z,99724.56
2023-03-25T01:58:38.039Z,99733.78
2023-03-25T02:01:05.543Z,99737.62
2023-03-25T02:03:37.468Z,99739.88
2023-03-25T02:06:14.730Z,99735.63
2023-03-25T02:08:42.226Z,99734.09
2023-03-25T02:11:11.250Z,99732.16
2023-03-25T02:13:41.485Z,99729.50
2023-03-25T02:16:45.817Z,99714.62
2023-03-25T02:19:18.466Z,99708.28
2023-03-25T02:22:25.933Z,99700.16
2023-03-25T02:25:14.200Z,99694.97
2023-03-25T02:28:02.269Z,99701.69
2023-03-25T02:30:57.223Z,99707.19
2023-03-25T02:33:49.084Z,99713.59
2023-03-25T02:36:43.111Z,99696.44
2023-03-25T02:39:28.306Z,99688.25
2023-03-25T02:42:06.355Z,99692.12
2023-03-25T02:44:50.780Z,99699.97
2023-03-25T02:47:20.487Z,99700.88
2023-03-25T02:49:54.919Z,99701.84
2023-03-25T02:52:29.445Z,99706.69
2023-03-25T02:55:04.499Z,99704.91
2023-03-25T02:57:35.397Z,99699.59
2023-03-25T03:00:11.092Z,99709.88
2023-03-25T03:02:39.370Z,99705.63
2023-03-25T03:05:23.363Z,99709.81
2023-03-25T03:08:10.438Z,99709.53
2023-03-25T03:11:07.593Z,99711.13
2023-03-25T03:13:49.431Z,99720.25
2023-03-25T03:16:19.871Z,99735.72
2023-03-25T03:18:54.016Z,99738.44
2023-03-25T03:21:30.612Z,99737.75
2023-03-25T03:24:12.653Z,99732.22
2023-03-25T03:26:39.573Z,99721.34
2023-03-25T03:29:14.418Z,99723.03
2023-03-25T03:31:48.451Z,99725.25
2023-03-25T03:34:48.691Z,99729.41
2023-03-25T03:37:28.692Z,99721.84
2023-03-25T03:39:58.116Z,99714.88
2023-03-25T03:42:49.169Z,99689.44
2023-03-25T03:45:39.615Z,99685.03
2023-03-25T03:48:13.128Z,99703.59
2023-03-25T03:50:48.944Z,99698.97
2023-03-25T03:53:23.826Z,99705.38
2023-03-25T03:55:56.100Z,99704.63
2023-03-25T03:58:30.161Z,99703.72
2023-03-25T04:01:16.957Z,99710.81
2023-03-25T04:03:52.439Z,99704.06
2023-03-25T04:06:35.655Z,99709.91
2023-03-25T04:09:18.747Z,99692.03
2023-03-25T04:11:56.866Z,99675.19
2023-03-25T04:14:24.033Z,99684.22
2023-03-25T04:16:53.320Z,99715.38
2023-03-25T04:19:20.330Z,99717.16
2023-03-25T04:21:48.215Z,99738.03
2023-03-25T04:24:17.045Z,99725.09
2023-03-25T04:26:44.343Z,99736.97
2023-03-25T04:29:11.312Z,99744.91
2023-03-25T04:31:46.638Z,99745.81
2023-03-25T04:34:15.092Z,99753.94
2023-03-25T04:36:43.316Z,99750.31
2023-03-25T04:39:12.922Z,99750.97
2023-03-25T04:41:40.166Z,99754.44
2023-03-25T04:44:08.143Z,99760.62
2023-03-25T04:46:36.727Z,99762.56
2023-03-25T04:49:06.499Z,99759.69
2023-03-25T04:51:33.717Z,99771.47
2023-03-25T04:54:01.154Z,99778.75
2023-03-25T04:56:28.208Z,99787.44
2023-03-25T04:58:55.357Z,99789.56
2023-03-25T05:01:32.778Z,99788.72
2023-03-25T05:04:07.744Z,99794.63
2023-03-25T05:06:38.637Z,99801.28
2023-03-25T05:09:07.259Z,99803.50
2023-03-25T05:11:37.286Z,99805.31
2023-03-25T05:14:04.308Z,99809.75
2023-03-25T05:16:31.325Z,99810.94
2023-03-25T05:18:58.695Z,99811.97
2023-03-25T05:21:25.884Z,99807.84
2023-03-25T05:23:52.876Z,99814.53
2023-03-25T05:26:21.007Z,99801.91
2023-03-25T05:28:51.681Z,99816.28
2023-03-25T05:31:19.237Z,99813.75
2023-03-25T05:33:46.501Z,99811.41
2023-03-25T05:36:18.853Z,99826.34
2023-03-25T05:38:45.795Z,99823.09
2023-03-25T05:41:17.261Z,99824.25
2023-03-25T05:43:53.378Z,99830.69
2023-03-25T05:46:20.676Z,99821.28
2023-03-25T05:48:47.666Z,99826.25
2023-03-25T05:51:22.090Z,99825.09
2023-03-25T05:53:53.677Z,99825.47
2023-03-25T05:56:23.357Z,99822.44
2023-03-25T05:58:51.320Z,99821.94
2023-03-25T06:01:31.755Z,99813.03
2023-03-25T06:04:05.586Z,99822.88
2023-03-25T06:06:34.492Z,99834.19
2023-03-25T06:09:02.544Z,99841.53
2023-03-25T06:11:30.078Z,99846.69
2023-03-25T06:13:57.532Z,99834.84
2023-03-25T06:16:30.173Z,99832.00
2023-03-25T06:19:00.402Z,99836.00
2023-03-25T06:21:29.556Z,99825.81
2023-03-25T06:23:58.948Z,99818.78
2023-03-25T06:26:26.727Z,99833.75
2023-03-25T06:28:54.925Z,99830.34
2023-03-25T06:31:33.934Z,99834.25
2023-03-25T06:34:01.760Z,99823.19
2023-03-25T06:36:28.799Z,99827.34
2023-03-25T06:38:55.858Z,99823.44
2023-03-25T06:41:26.066Z,99826.94
2023-03-25T06:43:53.539Z,99837.38
2023-03-25T06:46:20.516Z,99842.75
2023-03-25T06:48:47.634Z,99860.25
2023-03-25T06:51:14.693Z,99858.72
2023-03-25T06:53:41.690Z,99859.00
2023-03-25T06:56:09.099Z,99855.38
2023-03-25T06:58:36.126Z,99846.72
2023-03-25T07:01:07.755Z,99855.63
2023-03-25T07:03:36.938Z,99858.13
2023-03-25T07:06:06.020Z,99846.03
2023-03-25T07:08:33.376Z,99852.31
2023-03-25T07:11:08.286Z,99860.19
2023-03-25T07:13:35.688Z,99865.38
2023-03-25T07:16:03.376Z,99845.47
2023-03-25T07:18:30.460Z,99855.06
2023-03-25T07:20:57.604Z,99865.25
2023-03-25T07:23:24.642Z,99858.75
2023-03-25T07:25:51.948Z,99865.69
2023-03-25T07:28:19.373Z,99860.75
2023-03-25T07:30:46.764Z,99857.84
2023-03-25T07:33:13.734Z,99855.97
2023-03-25T07:35:40.844Z,99845.78
2023-03-25T07:38:08.093Z,99847.09
2023-03-25T07:40:35.078Z,99842.94
2023-03-25T07:43:01.989Z,99845.47
2023-03-25T07:45:29.221Z,99843.31
2023-03-25T07:47:56.365Z,99852.41
2023-03-25T07:50:25.257Z,99851.06
2023-03-25T07:52:53.087Z,99855.38
2023-03-25T07:55:20.110Z,99847.59
2023-03-25T07:57:47.278Z,99856.25
2023-03-25T08:00:14.975Z,99855.34
2023-03-25T08:02:42.311Z,99858.91
2023-03-25T08:05:09.938Z,99854.25
2023-03-25T08:07:36.868Z,99854.44
2023-03-25T08:10:04.363Z,99851.47
2023-03-25T08:12:31.370Z,99841.16
2023-03-25T08:15:00.214Z,99842.31
2023-03-25T08:17:27.362Z,99858.34
2023-03-25T08:19:54.373Z,99861.59
2023-03-25T08:22:21.311Z,99866.56
2023-03-25T08:24:48.269Z,99865.31
2023-03-25T08:27:16.674Z,99857.56
2023-03-25T08:29:45.114Z,99854.84
2023-03-25T08:32:12.018Z,99856.06
2023-03-25T08:34:40.268Z,99852.69
2023-03-25T08:37:10.317Z,99849.34
2023-03-25T08:39:40.193Z,99859.59
2023-03-25T08:42:09.123Z,99858.13
2023-03-25T08:44:36.701Z,99853.09
2023-03-25T08:47:04.274Z,99859.09
2023-03-25T08:49:31.356Z,99843.34
2023-03-25T08:52:00.458Z,99860.00
2023-03-25T08:54:29.351Z,99862.44
2023-03-25T08:56:56.546Z,99871.56
2023-03-25T08:59:23.619Z,99874.09
2023-03-25T09:01:50.886Z,99874.00
2023-03-25T09:04:17.986Z,99865.81
2023-03-25T09:06:47.176Z,99859.78
2023-03-25T09:09:16.886Z,99862.03
2023-03-25T09:11:44.699Z,99851.94
2023-03-25T09:14:11.817Z,99858.88
2023-03-25T09:16:38.898Z,99854.94
2023-03-25T09:19:06.052Z,99860.66
2023-03-25T09:21:33.043Z,99854.81
2023-03-25T09:24:00.149Z,99852.03
2023-03-25T09:26:27.361Z,99843.88
2023-03-25T09:28:56.550Z,99855.91
2023-03-25T09:31:24.374Z,99859.34
2023-03-25T09:33:51.492Z,99857.59
2023-03-25T09:36:18.504Z,99857.81
2023-03-25T09:38:45.953Z,99866.03
2023-03-25T09:41:38.951Z,99862.88
2023-03-25T09:44:15.333Z,99860.62
2023-03-25T09:46:44.274Z,99861.75
2023-03-25T09:49:19.938Z,99869.41
2023-03-25T09:51:49.944Z,99871.63
2023-03-25T09:54:16.891Z,99867.19
2023-03-25T09:56:44.949Z,99869.53
2023-03-25T09:59:21.614Z,99872.41
2023-03-25T10:02:04.622Z,99869.44
2023-03-25T10:04:53.564Z,99870.69
2023-03-25T10:07:55.097Z,99863.25
2023-03-25T10:10:24.853Z,99870.84
2023-03-25T10:12:56.322Z,99869.00
2023-03-25T10:15:41.225Z,99861.22
2023-03-25T10:18:28.044Z,99848.91
2023-03-25T10:21:10.862Z,99845.66
2023-03-25T10:23:43.279Z,99825.91
2023-03-25T10:26:21.050Z,99832.50
2023-03-25T10:29:05.357Z,99856.94
2023-03-25T10:31:37.977Z,99843.81
2023-03-25T10:34:10.892Z,99855.06
2023-03-25T10:36:45.472Z,99855.13
2023-03-25T10:39:19.272Z,99842.97
2023-03-25T10:42:18.555Z,99830.69
2023-03-25T10:44:47.296Z,99824.63
2023-03-25T10:47:19.919Z,99831.84
2023-03-25T10:49:48.736Z,99815.53
2023-03-25T10:52:16.691Z,99818.19
2023-03-25T10:54:48.289Z,99818.19
2023-03-25T10:57:28.534Z,99829.06
2023-03-25T11:00:01.625Z,99839.34
2023-03-25T11:02:30.924Z,99843.38
2023-03-25T11:05:03.391Z,99831.50
2023-03-25T11:07:33.946Z,99833.44
2023-03-25T11:10:26.371Z,99831.03
2023-03-25T11:12:55.111Z,99833.13
2023-03-25T11:15:26.060Z,99838.53
2023-03-25T11:18:13.981Z,99833.31
2023-03-25T11:20:48.503Z,99831.88
2023-03-25T11:23:26.628Z,99828.50
2023-03-25T11:25:55.888Z,99821.84
2023-03-25T11:28:38.435Z,99820.66
2023-03-25T11:31:11.684Z,99816.66
2023-03-25T11:33:40.063Z,99804.53
2023-03-25T11:36:20.824Z,99812.00
2023-03-25T11:38:53.932Z,99812.88
2023-03-25T11:41:20.976Z,99808.19
2023-03-25T11:43:50.063Z,99821.75
2023-03-25T11:46:21.364Z,99812.81
2023-03-25T11:48:50.411Z,99818.34
2023-03-25T11:51:24.214Z,99823.34
2023-03-25T11:54:03.362Z,99820.16
2023-03-25T11:56:39.339Z,99809.44
2023-03-25T11:59:30.640Z,99807.31
2023-03-25T12:02:03.394Z,99808.19
2023-03-25T12:04:30.892Z,99796.00
2023-03-25T12:07:02.028Z,99797.88
2023-03-25T12:09:32.293Z,99787.37
2023-03-25T12:12:08.720Z,99784.06
2023-03-25T12:14:38.750Z,99782.44
2023-03-25T12:17:24.398Z,99777.41
2023-03-25T12:20:13.830Z,99775.91
2023-03-25T12:23:03.741Z,99772.50
2023-03-25T12:25:57.049Z,99766.59
2023-03-25T12:28:41.892Z,99762.91
2023-03-25T12:31:24.191Z,99753.81
2023-03-25T12:34:03.611Z,99750.97
2023-03-25T12:37:00.047Z,99752.13
2023-03-25T12:39:46.945Z,99747.38
2023-03-25T12:42:53.923Z,99725.53
2023-03-25T12:45:22.584Z,99740.94
2023-03-25T12:47:56.477Z,99739.66
2023-03-25T12:50:44.200Z,99748.63
2023-03-25T12:53:41.830Z,99748.91
2023-03-25T12:56:14.476Z,99738.25
2023-03-25T12:58:44.261Z,99742.34
2023-03-25T13:01:20.507Z,99735.06
2023-03-25T13:04:12.512Z,99747.94
2023-03-25T13:07:05.758Z,99763.31
2023-03-25T13:09:52.512Z,99771.78
2023-03-25T13:12:54.262Z,99776.53
2023-03-25T13:15:26.906Z,99777.66
2023-03-25T13:18:04.210Z,99771.72
2023-03-25T13:20:38.063Z,99772.81
2023-03-25T13:23:08.039Z,99766.19
2023-03-25T13:25:57.217Z,99767.78
2023-03-25T13:28:50.618Z,99766.97
2023-03-25T13:31:21.390Z,99762.06
2023-03-25T13:34:00.939Z,99747.53
2023-03-25T13:39:16.212Z,99760.28
2023-03-25T13:41:48.155Z,99750.28
2023-03-25T13:44:29.303Z,99750.88
2023-03-25T13:47:06.946Z,99743.97
2023-03-25T13:49:44.548Z,99753.72
2023-03-25T13:52:14.854Z,99749.94
2023-03-25T13:55:09.941Z,99740.22
2023-03-25T13:58:01.550Z,99745.19
2023-03-25T14:00:55.758Z,99743.91
2023-03-25T14:03:38.241Z,99752.34
2023-03-25T14:06:10.775Z,99743.88
2023-03-25T14:09:05.810Z,99760.72
2023-03-25T14:11:50.205Z,99760.66
2023-03-25T14:14:23.110Z,99764.47
2023-03-25T14:16:58.446Z,99756.22
2023-03-25T14:19:37.663Z,99752.78
2023-03-25T14:22:16.881Z,99753.03
2023-03-25T14:24:45.570Z,99763.72
2023-03-25T14:27:30.045Z,99773.53
2023-03-25T14:30:20.680Z,99773.06
2023-03-25T14:32:47.800Z,99766.06
2023-03-25T14:35:36.919Z,99770.94
2023-03-25T14:38:09.647Z,99761.25
2023-03-25T14:40:50.726Z,99760.41
2023-03-25T14:43:33.288Z,99768.69
2023-03-25T14:46:23.855Z,99765.09
2023-03-25T14:49:19.009Z,99779.25
2023-03-25T14:51:51.899Z,99774.47
2023-03-25T14:54:27.858Z,99775.88
2023-03-25T14:57:08.328Z,99774.59
2023-03-25T14:59:42.500Z,99771.06
2023-03-25T15:02:23.048Z,99765.63
2023-03-25T15:04:54.823Z,99764.28
2023-03-25T15:07:39.348Z,99764.28
2023-03-25T15:10:07.574Z,99757.22
2023-03-25T15:12:39.021Z,99757.31
2023-03-25T15:15:27.858Z,99746.44
2023-03-25T15:17:55.064Z,99750.16
2023-03-25T15:20:21.984Z,99744.53
2023-03-25T15:23:34.797Z,99742.19
2023-03-25T15:26:03.117Z,99745.75
2023-03-25T15:28:45.505Z,99749.00
2023-03-25T15:31:20.469Z,99748.69
2023-03-25T15:34:02.636Z,99745.44
2023-03-25T15:36:48.244Z,99745.59
2023-03-25T15:39:41.040Z,99755.97
2023-03-25T15:42:07.966Z,99747.41
2023-03-25T15:44:34.874Z,99741.94
2023-03-25T15:47:20.689Z,99743.59
2023-03-25T15:50:09.620Z,99756.09
2023-03-25T15:53:12.876Z,99750.19
2023-03-25T15:55:46.126Z,99754.84
2023-03-25T15:58:26.221Z,99755.47
2023-03-25T16:00:59.755Z,99752.56
2023-03-25T16:03:30.505Z,99753.38
2023-03-25T16:06:01.893Z,99753.53
2023-03-25T16:08:33.120Z,99760.91
2023-03-25T16:11:23.223Z,99755.94
2023-03-25T16:14:15.040Z,99758.28
2023-03-25T16:16:53.390Z,99757.22
2023-03-25T16:19:23.705Z,99760.03
2023-03-25T16:21:53.259Z,99762.34
2023-03-25T16:24:26.554Z,99761.69
2023-03-25T16:26:53.718Z,99753.38
2023-03-25T16:29:26.327Z,99754.34
2023-03-25T16:32:04.142Z,99753.38
2023-03-25T16:34:38.044Z,99752.72
2023-03-25T16:37:06.508Z,99759.66
2023-03-25T16:39:36.700Z,99749.25
2023-03-25T16:42:10.203Z,99754.88
2023-03-25T16:44:38.230Z,99755.72
2023-03-25T16:47:05.879Z,99752.06
2023-03-25T16:49:40.369Z,99749.25
2023-03-25T16:52:14.481Z,99748.56
2023-03-25T16:57:27.706Z,99732.19
2023-03-25T16:59:56.267Z,99730.53
2023-03-25T17:02:26.836Z,99733.81
2023-03-25T17:04:58.088Z,99750.06
2023-03-25T17:07:28.322Z,99747.25
2023-03-25T17:09:59.088Z,99749.69
2023-03-25T17:12:28.856Z,99758.09
2023-03-25T17:14:58.625Z,99759.34
2023-03-25T17:17:30.546Z,99752.25
2023-03-25T17:20:02.802Z,99762.25
2023-03-25T17:22:39.856Z,99757.63
2023-03-25T17:25:27.550Z,99770.03
2023-03-25T17:28:07.141Z,99787.34
2023-03-25T17:30:42.959Z,99811.53
2023-03-25T17:33:14.476Z,99809.91
2023-03-25T17:35:44.528Z,99810.09
2023-03-25T17:38:24.281Z,99800.03
2023-03-25T17:41:06.602Z,99807.62
2023-03-25T17:43:41.589Z,99801.72
2023-03-25T17:46:09.645Z,99802.72
2023-03-25T17:48:37.011Z,99805.25
2023-03-25T17:51:06.275Z,99820.41
2023-03-25T17:53:33.228Z,99838.06
2023-03-25T17:56:03.509Z,99848.94
2023-03-25T17:58:30.878Z,99851.56
2023-03-25T18:00:59.128Z,99855.97
2023-03-25T18:03:28.329Z,99859.53
2023-03-25T18:05:55.620Z,99869.44
2023-03-25T18:08:24.432Z,99877.63
2023-03-25T18:10:53.416Z,99881.84
2023-03-25T18:13:22.137Z,99882.84
2023-03-25T18:15:49.347Z,99880.88
2023-03-25T18:18:20.642Z,99892.13
2023-03-25T18:20:48.422Z,99895.66
2023-03-25T18:23:15.858Z,99898.94
2023-03-25T18:25:45.091Z,99898.31
2023-03-25T18:28:13.583Z,99908.09
2023-03-25T18:30:56.649Z,99912.28
2023-03-25T18:33:24.201Z,99916.72
2023-03-25T18:35:56.583Z,99920.81
2023-03-25T18:38:25.460Z,99931.09
2023-03-25T18:40:54.696Z,99931.91
2023-03-25T18:43:22.801Z,99921.16
2023-03-25T18:45:50.316Z,99927.78
2023-03-25T18:48:21.183Z,99916.50
2023-03-25T18:51:00.138Z,99921.94
2023-03-25T18:53:29.334Z,99924.97
2023-03-25T18:56:00.254Z,99926.78
2023-03-25T18:58:33.193Z,99940.00
2023-03-25T19:01:01.841Z,99935.53
2023-03-25T19:03:40.658Z,99941.94
2023-03-25T19:06:11.559Z,99946.19
2023-03-25T19:08:39.315Z,99938.72
2023-03-25T19:11:20.069Z,99944.28
2023-03-25T19:13:49.190Z,99953.50
2023-03-25T19:16:16.786Z,99946.81
2023-03-25T19:18:44.017Z,99956.31
2023-03-25T19:21:15.410Z,99955.75
2023-03-25T19:23:43.201Z,99954.56
2023-03-25T19:26:10.377Z,99947.50
2023-03-25T19:28:37.389Z,99934.53
2023-03-25T19:31:04.815Z,99921.00
2023-03-25T19:33:32.199Z,99931.78
2023-03-25T19:36:01.998Z,99933.94
2023-03-25T19:38:30.282Z,99940.13
2023-03-25T19:41:23.541Z,99938.94
2023-03-25T19:43:50.562Z,99941.63
2023-03-25T19:46:19.415Z,99942.47
2023-03-25T19:48:46.763Z,99943.91
2023-03-25T19:51:14.046Z,99945.78
2023-03-25T19:53:40.998Z,99950.44
2023-03-25T19:56:09.870Z,99959.16
2023-03-25T19:58:36.804Z,99962.87
2023-03-25T20:01:03.878Z,99970.97
2023-03-25T20:03:32.909Z,99985.87
2023-03-25T20:06:01.690Z,99997.16
2023-03-25T20:08:30.232Z,100031.34
2023-03-25T20:10:57.148Z,100026.84
2023-03-25T20:13:24.526Z,100025.94
2023-03-25T20:15:52.817Z,100034.47
2023-03-25T20:18:20.728Z,100051.09
2023-03-25T20:20:47.703Z,100061.19
2023-03-25T20:23:14.627Z,100068.94
2023-03-25T20:25:41.908Z,100060.72
2023-03-25T20:28:09.131Z,100049.16
2023-03-25T20:30:36.300Z,100027.69
2023-03-25T20:33:03.639Z,99990.12
2023-03-25T20:35:32.000Z,100016.16
2023-03-25T20:37:59.318Z,100025.38
2023-03-25T20:40:37.357Z,100025.00
2023-03-25T20:43:09.200Z,100019.56
2023-03-25T20:45:36.269Z,100023.13
2023-03-25T20:48:04.132Z,100019.81
2023-03-25T20:50:31.054Z,100018.19
2023-03-25T20:52:57.951Z,100019.97
2023-03-25T20:55:24.985Z,100031.25
2023-03-25T20:57:52.169Z,100029.91
2023-03-25T21:00:19.781Z,100030.25
2023-03-25T21:02:48.057Z,100037.19
2023-03-25T21:05:15.081Z,100035.19
2023-03-25T21:07:42.159Z,100031.13
2023-03-25T21:10:10.509Z,100032.44
2023-03-25T21:12:43.839Z,100034.72
2023-03-25T21:15:13.493Z,100049.03
2023-03-25T21:17:41.149Z,100029.44
2023-03-25T21:20:09.345Z,100033.44
2023-03-25T21:22:43.286Z,100029.31
2023-03-25T21:25:11.784Z,100029.78
2023-03-25T21:27:39.853Z,100028.00
2023-03-25T21:30:09.903Z,100030.03
2023-03-25T21:32:37.179Z,100025.56
2023-03-25T21:35:04.211Z,100023.13
2023-03-25T21:37:35.871Z,100029.19
2023-03-25T21:40:04.050Z,100034.13
2023-03-25T21:42:31.189Z,100024.75
2023-03-25T21:44:58.449Z,100029.25
2023-03-25T21:47:25.630Z,100020.31
2023-03-25T21:49:52.531Z,100018.00
2023-03-25T21:52:19.499Z,100012.06
2023-03-25T21:54:48.634Z,100012.12
2023-03-25T21:57:15.618Z,100006.84
2023-03-25T21:59:42.634Z,100002.56
2023-03-25T22:02:14.481Z,100006.94
2023-03-25T22:04:41.761Z,100007.84
2023-03-25T22:07:08.870Z,100008.75
2023-03-25T22:09:36.177Z,100015.72
2023-03-25T22:12:03.202Z,100024.09
2023-03-25T22:14:30.133Z,100037.13
2023-03-25T22:16:57.109Z,100057.94
2023-03-25T22:19:24.681Z,100070.44
2023-03-25T22:21:51.692Z,100074.00
2023-03-25T22:24:18.705Z,100063.13
2023-03-25T22:26:45.636Z,100039.25
2023-03-25T22:29:13.719Z,100033.13
2023-03-25T22:31:41.333Z,100026.44
2023-03-25T22:34:11.266Z,100030.03
2023-03-25T22:36:39.811Z,100036.72
2023-03-25T22:39:07.249Z,100043.97
2023-03-25T22:41:34.523Z,100045.62
2023-03-25T22:44:01.646Z,100046.34
2023-03-25T22:46:28.703Z,100046.47
2023-03-25T22:48:55.821Z,100038.50
2023-03-25T22:51:22.758Z,100031.22
2023-03-25T22:53:49.751Z,100033.97
2023-03-25T22:56:16.740Z,100032.28
2023-03-25T22:58:43.743Z,100022.38
2023-03-25T23:01:25.252Z,100042.16
2023-03-25T23:03:53.921Z,100038.97
2023-03-25T23:06:21.717Z,100047.53
2023-03-25T23:08:49.158Z,100054.37
2023-03-25T23:11:21.987Z,100048.09
2023-03-25T23:13:53.323Z,100052.41
2023-03-25T23:16:24.334Z,100046.41
2023-03-25T23:18:52.257Z,100043.41
2023-03-25T23:21:22.047Z,100047.91
2023-03-25T23:23:53.287Z,100063.78
2023-03-25T23:26:27.665Z,100056.66
2023-03-25T23:29:00.758Z,100061.97
2023-03-25T23:31:34.247Z,100057.78
2023-03-25T23:34:06.954Z,100062.03
2023-03-25T23:36:36.673Z,100066.53
2023-03-25T23:39:07.524Z,100064.81
2023-03-25T23:41:35.224Z,100065.62
2023-03-25T23:44:03.196Z,100057.75
2023-03-25T23:46:30.370Z,100058.91
2023-03-25T23:49:02.782Z,100059.84
2023-03-25T23:51:36.799Z,100066.88
2023-03-25T23:54:05.378Z,100074.81
2023-03-25T23:56:32.590Z,100053.06
2023-03-25T23:59:00.743Z,100058.84
